Time;durP1;ratioP1;P1;durP2;ratioP2;P2;SDS_P1;SDS_P2;PMS_P1;PMS_P2;Temp;Humidity;BMP_temperature;BMP_pressure;BME280_temperature;BME280_humidity;BME280_pressure;Samples;Min_cycle;Max_cycle;Signal;HPM_P1;HPM_P2
2022/05/24 00:02:47;;;;;;;;;8.50;7.50;;;;;21.18;60.75;100398.66;146608;604;46020;-68
2022/05/24 00:05:40;;;;;;;;;9.00;7.00;;;;;21.17;60.58;100391.62;146607;615;46033;-69
2022/05/24 00:08:32;;;;;;;;;13.00;10.00;;;;;21.15;60.95;100396.00;146606;598;46020;-70
2022/05/24 00:11:24;;;;;;;;;9.00;9.00;;;;;21.12;62.02;100399.53;146606;640;46012;-67
2022/05/24 00:15:19;;;;;;;;;6.25;5.25;;;;;21.10;61.47;100397.75;146606;624;46011;-69
2022/05/24 00:17:28;;;;;;;;;9.25;8.25;;;;;21.08;61.38;100384.56;146605;575;46016;-68
2022/05/24 00:20:21;;;;;;;;;9.50;9.00;;;;;21.07;61.68;100393.34;146609;685;46010;-70
2022/05/24 00:23:14;;;;;;;;;8.00;8.00;;;;;21.04;61.63;100395.09;146604;575;46016;-68
2022/05/24 00:26:10;;;;;;;;;9.25;8.25;;;;;21.02;61.01;100394.22;146607;639;46021;-79
2022/05/24 00:29:02;;;;;;;;;10.00;8.00;;;;;21.05;62.08;100395.09;146604;640;46918;-77
2022/05/24 00:31:54;;;;;;;;;9.00;8.75;;;;;21.03;62.16;100402.13;146608;586;46020;-75
2022/05/24 00:34:47;;;;;;;;;10.00;9.00;;;;;20.98;62.77;100403.88;146602;643;47918;-83
2022/05/24 00:37:42;;;;;;;;;9.00;8.00;;;;;20.91;63.01;100404.72;146603;558;46020;-79
2022/05/24 00:41:06;;;;;;;;;10.25;10.00;;;;;20.82;61.57;100399.41;146603;612;46016;-76
2022/05/24 00:44:29;;;;;;;;;9.75;9.50;;;;;20.72;61.20;100395.88;146606;563;46028;-74
2022/05/24 00:47:34;;;;;;;;;8.75;8.25;;;;;20.67;62.48;100394.94;146607;630;46012;-74
2022/05/24 00:50:33;;;;;;;;;9.75;8.50;;;;;20.63;62.18;100394.06;146609;595;46020;-73
2022/05/24 00:53:44;;;;;;;;;13.75;12.00;;;;;20.67;61.02;100395.81;146606;601;46012;-73
2022/05/24 00:57:26;;;;;;;;;9.50;9.50;;;;;20.62;62.47;100389.63;146608;594;46011;-69
2022/05/24 01:00:24;;;;;;;;;10.00;8.25;;;;;20.57;63.03;100401.94;146606;569;46016;-70
2022/05/24 01:03:17;;;;;;;;;9.00;8.50;;;;;20.49;63.60;100398.31;146607;569;46010;-70
2022/05/24 01:06:09;;;;;;;;;11.75;8.75;;;;;20.45;63.54;100409.72;146604;632;47014;-69
2022/05/24 01:09:06;;;;;;;;;14.00;12.00;;;;;20.43;64.10;100393.91;146607;663;46020;-69
2022/05/24 01:12:06;;;;;;;;;10.00;8.75;;;;;20.41;63.25;100406.19;146603;617;46024;-71
2022/05/24 01:15:02;;;;;;;;;10.75;9.00;;;;;20.39;63.67;100405.28;146606;584;46010;-70
2022/05/24 01:17:56;;;;;;;;;11.25;10.75;;;;;20.37;63.26;100401.75;146606;612;46918;-72
2022/05/24 01:20:54;;;;;;;;;13.00;10.00;;;;;20.35;62.74;100406.16;146606;569;47010;-71
2022/05/24 01:24:05;;;;;;;;;11.25;11.25;;;;;20.36;62.38;100400.00;146604;657;46917;-69
2022/05/24 01:27:00;;;;;;;;;14.25;11.00;;;;;20.39;64.37;100393.88;146628;569;45021;-71
2022/05/24 01:29:52;;;;;;;;;11.50;11.00;;;;;20.42;64.97;100397.41;146626;584;46012;-76
2022/05/24 01:36:13;;;;;;;;;12.25;11.25;;;;;20.35;65.48;100392.13;146629;632;45016;-74
2022/05/24 01:39:09;;;;;;;;;12.00;11.00;;;;;20.34;65.48;100396.47;146630;632;46010;-73
2022/05/24 01:42:01;;;;;;;;;15.00;13.00;;;;;20.35;65.05;100403.53;146623;613;45014;-73
2022/05/24 01:45:09;;;;;;;;;15.00;13.25;;;;;20.36;64.12;100404.41;146629;577;45010;-74
2022/05/24 01:48:13;;;;;;;;;15.25;12.00;;;;;20.42;63.92;100402.69;146625;577;46011;-73
2022/05/24 01:51:08;;;;;;;;;13.00;12.00;;;;;20.48;65.17;100407.97;146630;615;45012;-74
2022/05/24 01:54:03;;;;;;;;;13.50;13.50;;;;;20.51;64.56;100408.03;146629;563;45018;-76
2022/05/24 01:57:03;;;;;;;;;13.25;11.75;;;;;20.54;63.87;100412.44;146626;577;45021;-76
2022/05/24 01:59:58;;;;;;;;;12.00;12.00;;;;;20.59;65.28;100407.19;146626;564;45918;-71
2022/05/24 02:02:52;;;;;;;;;12.75;12.00;;;;;20.60;65.12;100409.84;146629;565;45020;-73
2022/05/24 02:05:45;;;;;;;;;15.75;12.00;;;;;20.61;64.54;100413.34;146626;565;45016;-71
2022/05/24 02:08:38;;;;;;;;;14.25;13.50;;;;;20.63;64.11;100416.91;146629;569;45020;-71
2022/05/24 02:11:33;;;;;;;;;13.00;12.25;;;;;20.63;63.73;100417.78;146629;658;45016;-70
2022/05/24 02:14:33;;;;;;;;;11.25;11.25;;;;;20.66;63.92;100417.78;146628;640;45020;-71
2022/05/24 02:17:39;;;;;;;;;16.00;14.25;;;;;20.67;63.48;100414.25;146625;564;45017;-70
2022/05/24 02:20:33;;;;;;;;;11.25;8.75;;;;;20.60;65.46;100422.16;146627;662;45010;-70
2022/05/24 02:23:26;;;;;;;;;9.00;8.50;;;;;20.49;64.25;100416.75;146628;569;45016;-70
2022/05/24 02:26:20;;;;;;;;;15.25;12.50;;;;;20.39;65.60;100423.72;146612;583;46021;-69
2022/05/24 02:29:12;;;;;;;;;9.75;8.75;;;;;20.31;64.77;100425.41;146606;624;46012;-70
2022/05/24 02:32:04;;;;;;;;;10.00;10.00;;;;;20.26;65.67;100428.03;146606;586;46020;-70
2022/05/24 02:34:56;;;;;;;;;12.25;10.00;;;;;20.19;66.89;100428.00;146605;585;46017;-70
2022/05/24 02:37:49;;;;;;;;;13.25;10.75;;;;;20.10;65.06;100425.28;146609;617;45048;-71
2022/05/24 02:43:51;;;;;;;;;13.75;11.00;;;;;20.01;65.34;100416.44;146607;563;46020;-71
2022/05/24 02:46:48;;;;;;;;;11.00;10.50;;;;;19.05;65.24;100263.06;146606;629;46028;-72
2022/05/24 02:49:40;;;;;;;;;13.00;12.00;;;;;19.90;66.61;100419.84;146610;600;45021;-71
2022/05/24 02:52:35;;;;;;;;;12.75;11.25;;;;;19.79;65.74;100420.66;146605;597;46016;-72
2022/05/24 02:55:27;;;;;;;;;12.50;11.75;;;;;19.73;66.46;100422.34;146609;569;45031;-72
2022/05/24 02:58:20;;;;;;;;;12.75;11.50;;;;;19.64;66.32;100417.88;146606;579;46016;-73
2022/05/24 03:01:19;;;;;;;;;10.00;9.00;;;;;19.62;65.11;100425.72;146607;569;46020;-73
2022/05/24 03:04:10;;;;;;;;;13.00;10.75;;;;;19.65;65.53;100422.25;146606;569;46014;-72
2022/05/24 03:10:13;;;;;;;;;11.25;10.25;;;;;19.67;64.63;100433.69;146604;655;46017;-72
2022/05/24 03:16:19;;;;;;;;;11.00;9.75;;;;;19.68;65.45;100443.34;146606;643;46016;-71
2022/05/24 03:19:11;;;;;;;;;11.75;11.25;;;;;19.67;65.98;100440.69;146605;580;46021;-71
2022/05/24 03:22:03;;;;;;;;;13.00;11.00;;;;;19.67;66.24;100446.84;146605;580;46016;-74
2022/05/24 03:24:56;;;;;;;;;12.25;10.25;;;;;19.67;65.99;100448.59;146608;571;46010;-70
2022/05/24 03:27:50;;;;;;;;;12.00;11.00;;;;;19.64;66.79;100451.16;146607;592;46014;-70
2022/05/24 03:30:47;;;;;;;;;14.25;13.25;;;;;19.63;66.72;100452.91;146608;564;46010;-69
2022/05/24 03:33:40;;;;;;;;;11.25;11.25;;;;;19.59;68.53;100459.91;146603;604;46017;-69
2022/05/24 03:36:33;;;;;;;;;13.25;13.25;;;;;19.54;68.50;100458.06;146608;683;46020;-68
2022/05/24 03:39:25;;;;;;;;;11.75;11.75;;;;;19.53;67.05;100464.19;146607;606;46016;-68
2022/05/24 03:42:17;;;;;;;;;13.25;13.00;;;;;19.58;67.60;100473.88;146605;601;46020;-68
2022/05/24 03:45:12;;;;;;;;;12.25;11.25;;;;;19.65;67.19;100469.59;146604;698;46016;-73
2022/05/24 03:48:04;;;;;;;;;12.50;10.25;;;;;19.70;68.11;100467.91;146607;564;46021;-74
2022/05/24 03:50:56;;;;;;;;;14.50;14.25;;;;;19.75;67.43;100475.84;146603;652;46036;-73
2022/05/24 03:53:48;;;;;;;;;16.00;15.50;;;;;19.84;67.99;100474.22;146607;585;46010;-74
2022/05/24 03:59:57;;;;;;;;;9.50;9.50;;;;;20.12;67.16;100491.97;146609;656;46012;-74
2022/05/24 04:02:49;;;;;;;;;17.00;16.25;;;;;20.25;66.58;100489.47;146605;635;46012;-73
2022/05/24 04:05:41;;;;;;;;;15.00;14.00;;;;;20.43;66.65;100488.72;146606;615;46029;-74
2022/05/24 04:08:33;;;;;;;;;18.00;15.50;;;;;20.60;66.33;100499.41;146604;573;46017;-74
2022/05/24 04:11:25;;;;;;;;;18.25;15.75;;;;;20.79;66.36;100502.16;146609;643;45020;-72
2022/05/24 04:14:17;;;;;;;;;15.00;15.00;;;;;20.95;66.31;100510.16;146605;573;46917;-73
2022/05/24 04:17:10;;;;;;;;;18.75;16.25;;;;;21.08;66.11;100503.19;146605;583;47012;-73
2022/05/24 04:20:01;;;;;;;;;16.50;14.50;;;;;21.20;65.59;100508.53;146603;569;46016;-72
2022/05/24 04:22:56;;;;;;;;;15.00;13.75;;;;;21.31;65.47;100500.66;146608;583;46020;-72
2022/05/24 04:25:48;;;;;;;;;18.75;15.75;;;;;21.44;65.09;100509.53;146603;614;46016;-73
2022/05/24 04:28:40;;;;;;;;;19.00;14.50;;;;;20.59;64.70;100343.97;146606;577;46020;-72
2022/05/24 04:31:31;;;;;;;;;18.75;17.75;;;;;21.71;64.32;100515.75;146606;601;46017;-72
2022/05/24 04:34:24;;;;;;;;;16.50;15.50;;;;;21.85;63.41;100517.56;146607;597;46020;-72
2022/05/24 04:37:16;;;;;;;;;17.50;16.75;;;;;21.99;63.81;100520.19;146606;609;46015;-69
2022/05/24 04:40:09;;;;;;;;;17.25;17.00;;;;;22.19;63.43;100522.03;146607;652;46010;-69
2022/05/24 04:43:02;;;;;;;;;22.50;19.00;;;;;22.34;62.87;100522.03;146604;669;46016;-70
2022/05/24 04:45:55;;;;;;;;;21.75;19.00;;;;;22.54;62.48;100522.03;146608;575;47010;-68
2022/05/24 04:48:47;;;;;;;;;21.25;19.50;;;;;22.69;62.05;100526.41;146606;563;46016;-69
2022/05/24 04:51:39;;;;;;;;;18.75;16.75;;;;;22.89;62.08;100542.22;146608;584;46010;-71
2022/05/24 04:54:31;;;;;;;;;19.00;18.00;;;;;23.07;61.37;100541.34;146605;603;46016;-70
2022/05/24 04:57:24;;;;;;;;;19.50;18.75;;;;;23.23;61.30;100541.28;146607;576;46030;-71
2022/05/24 05:00:17;;;;;;;;;18.00;17.50;;;;;22.52;60.96;100387.28;146607;685;46012;-70
2022/05/24 05:03:14;;;;;;;;;17.50;15.75;;;;;23.57;60.53;100527.91;146608;574;46010;-71
2022/05/24 05:06:10;;;;;;;;;22.50;19.50;;;;;23.71;60.40;100536.69;146603;640;46917;-70
2022/05/24 05:09:03;;;;;;;;;19.25;19.00;;;;;23.85;60.50;100544.53;146602;564;47914;-75
2022/05/24 05:11:55;;;;;;;;;11.25;10.25;;;;;23.93;59.71;100553.34;146604;616;46014;-76
2022/05/24 05:14:47;;;;;;;;;9.50;8.75;;;;;24.05;59.19;100552.37;146611;678;46010;-79
2022/05/24 05:17:39;;;;;;;;;10.25;9.25;;;;;24.19;58.33;100549.63;146603;570;46918;-78
2022/05/24 05:20:32;;;;;;;;;15.75;12.00;;;;;24.36;58.35;100553.03;146607;565;46010;-78
2022/05/24 05:23:23;;;;;;;;;16.25;15.25;;;;;24.50;57.92;100555.59;146608;580;46012;-75
2022/05/24 05:26:16;;;;;;;;;9.75;9.75;;;;;24.63;57.04;100562.53;146606;708;46010;-75
2022/05/24 05:29:08;;;;;;;;;17.75;15.75;;;;;24.79;56.97;100559.75;146607;685;46013;-75
2022/05/24 05:32:00;;;;;;;;;13.00;12.00;;;;;24.94;55.94;100556.06;146607;583;46021;-75
2022/05/24 05:34:53;;;;;;;;;15.00;13.25;;;;;25.12;56.12;100561.19;146599;564;47917;-75
2022/05/24 05:37:45;;;;;;;;;13.75;12.75;;;;;25.26;55.62;100564.56;146605;619;46021;-74
2022/05/24 05:40:37;;;;;;;;;17.50;15.50;;;;;25.42;55.04;100565.28;146605;614;46012;-74
2022/05/24 05:43:30;;;;;;;;;24.25;18.25;;;;;25.58;54.77;100558.87;146605;612;46020;-75
2022/05/24 05:46:22;;;;;;;;;18.00;15.50;;;;;25.68;54.41;100566.72;146604;620;46012;-75
2022/05/24 05:49:15;;;;;;;;;19.25;18.75;;;;;25.72;53.77;100564.00;146606;563;46020;-75
2022/05/24 05:52:08;;;;;;;;;21.50;19.25;;;;;25.81;54.03;100565.69;146604;613;47012;-74
2022/05/24 05:55:00;;;;;;;;;17.25;16.50;;;;;25.84;52.95;100562.13;146610;580;46010;-75
2022/05/24 05:57:52;;;;;;;;;18.00;16.00;;;;;25.90;52.77;100567.34;146605;563;46016;-76
2022/05/24 06:00:48;;;;;;;;;21.75;19.25;;;;;25.97;52.11;100566.34;146609;595;46011;-76
2022/05/24 06:03:40;;;;;;;;;23.25;17.00;;;;;26.06;52.54;100570.66;146608;653;46016;-75
2022/05/24 06:06:36;;;;;;;;;20.25;16.25;;;;;25.36;53.49;100432.66;146606;683;47012;-75
2022/05/24 06:09:28;;;;;;;;;15.50;14.00;;;;;26.30;52.57;100567.62;146606;659;46012;-75
2022/05/24 06:12:20;;;;;;;;;17.25;14.25;;;;;26.40;51.53;100569.22;146606;582;46020;-74
2022/05/24 06:15:13;;;;;;;;;16.00;14.00;;;;;26.53;51.88;100558.41;146605;602;46014;-74
2022/05/24 06:18:06;;;;;;;;;18.25;16.00;;;;;26.62;51.94;100567.09;146607;569;46010;-75
2022/05/24 06:20:58;;;;;;;;;18.00;17.00;;;;;26.76;50.92;100560.66;146604;585;46016;-73
2022/05/24 06:23:50;;;;;;;;;15.00;15.00;;;;;26.85;50.36;100566.69;146605;619;46021;-73
2022/05/24 06:26:43;;;;;;;;;20.75;18.25;;;;;26.90;50.89;100564.81;146602;583;46016;-74
2022/05/24 06:29:38;;;;;;;;;21.50;21.00;;;;;26.10;50.08;100423.53;146608;647;46021;-74
2022/05/24 06:32:31;;;;;;;;;20.50;19.50;;;;;26.84;50.66;100575.56;146606;614;46012;-74
2022/05/24 06:35:24;;;;;;;;;20.50;18.25;;;;;26.71;50.49;100574.91;146605;607;46020;-73
2022/05/24 06:38:16;;;;;;;;;18.50;18.00;;;;;26.62;50.81;100580.41;146606;619;46017;-73
2022/05/24 06:41:09;;;;;;;;;21.50;20.00;;;;;26.60;50.94;100570.69;146607;570;46010;-73
2022/05/24 06:44:01;;;;;;;;;18.25;16.25;;;;;26.64;51.33;100572.41;146605;576;46015;-73
2022/05/24 06:46:54;;;;;;;;;22.00;19.25;;;;;26.73;51.87;100566.94;146606;569;46010;-74
2022/05/24 06:49:46;;;;;;;;;15.50;14.25;;;;;26.83;51.65;100562.31;146604;565;46016;-74
2022/05/24 06:52:38;;;;;;;;;18.25;18.00;;;;;26.99;50.87;100568.22;146609;577;46011;-74
2022/05/24 06:55:30;;;;;;;;;19.25;17.50;;;;;27.12;51.81;100567.97;146605;591;47012;-73
2022/05/24 06:58:23;;;;;;;;;19.75;17.50;;;;;27.23;51.06;100569.56;146610;564;46010;-74
2022/05/24 07:04:26;;;;;;;;;16.75;15.00;;;;;27.41;50.84;100563.84;146604;565;46022;-73
2022/05/24 07:07:19;;;;;;;;;17.00;15.50;;;;;27.55;50.57;100561.78;146607;649;46012;-73
2022/05/24 07:10:17;;;;;;;;;15.75;13.25;;;;;27.70;51.81;100563.25;146609;649;46020;-74
2022/05/24 07:13:16;;;;;;;;;18.25;17.25;;;;;27.77;51.16;100564.00;146607;570;45044;-73
2022/05/24 07:16:08;;;;;;;;;17.25;15.25;;;;;27.78;51.82;100563.97;146608;577;46010;-74
2022/05/24 07:19:01;;;;;;;;;19.00;18.00;;;;;27.80;51.89;100556.84;146605;644;46016;-74
2022/05/24 07:21:53;;;;;;;;;16.75;14.25;;;;;27.81;52.55;100563.03;146607;573;47012;-74
2022/05/24 07:24:48;;;;;;;;;10.00;10.00;;;;;27.82;52.31;100557.69;146604;607;46012;-74
2022/05/24 07:27:41;;;;;;;;;16.75;15.25;;;;;27.87;51.17;100560.25;146605;593;46020;-74
2022/05/24 07:30:34;;;;;;;;;15.75;13.75;;;;;27.92;51.54;100557.50;146605;624;46012;-74
2022/05/24 07:33:26;;;;;;;;;13.00;11.25;;;;;28.00;50.75;100561.69;146606;632;46020;-74
2022/05/24 07:36:18;;;;;;;;;16.00;13.50;;;;;28.05;50.60;100570.47;146605;572;46918;-73
2022/05/24 07:39:11;;;;;;;;;16.00;13.75;;;;;28.06;49.87;100572.22;146608;605;46010;-73
2022/05/24 07:48:29;;;;;;;;;8.75;7.00;;;;;28.25;46.09;100577.13;146607;598;46018;-73
2022/05/24 07:51:21;;;;;;;;;7.50;7.25;;;;;28.35;41.66;100576.00;146608;670;46011;-74
2022/05/24 07:54:13;;;;;;;;;8.75;8.75;;;;;28.37;45.28;100579.50;146607;690;46917;-73
2022/05/24 07:57:08;;;;;;;;;9.75;9.75;;;;;28.42;42.71;100576.75;146607;579;46020;-74
2022/05/24 07:59:59;;;;;;;;;8.25;7.25;;;;;28.44;43.41;100566.91;146607;587;46016;-74
2022/05/24 08:02:56;;;;;;;;;8.75;8.00;;;;;28.53;44.83;100572.00;146610;563;46010;-74
2022/05/24 08:05:49;;;;;;;;;8.75;7.50;;;;;28.67;43.96;100577.88;146609;686;46034;-73
2022/05/24 08:08:41;;;;;;;;;7.00;7.00;;;;;28.80;43.42;100570.44;146611;563;46020;-72
2022/05/24 08:11:34;;;;;;;;;8.25;7.00;;;;;28.80;39.02;100556.22;146608;580;46033;-75
2022/05/24 08:14:26;;;;;;;;;8.00;8.00;;;;;28.74;41.43;100558.13;146610;667;46010;-74
2022/05/24 08:17:18;;;;;;;;;8.00;7.50;;;;;28.68;41.52;100560.97;146607;684;46016;-73
2022/05/24 08:20:12;;;;;;;;;7.50;6.75;;;;;28.78;42.69;100561.59;146608;683;47010;-74
2022/05/24 08:23:05;;;;;;;;;11.25;9.75;;;;;28.90;43.74;100560.38;146605;565;47012;-73
2022/05/24 08:25:57;;;;;;;;;11.00;9.00;;;;;29.05;44.08;100562.69;146607;708;46021;-77
2022/05/24 08:28:51;;;;;;;;;9.00;8.00;;;;;29.18;42.96;100560.53;146605;742;47012;-76
2022/05/24 08:31:42;;;;;;;;;9.00;9.00;;;;;29.10;43.08;100527.84;146608;720;46010;-72
2022/05/24 08:34:35;;;;;;;;;9.00;8.00;;;;;29.37;42.17;100560.88;146604;571;46016;-72
2022/05/24 08:37:27;;;;;;;;;9.50;8.00;;;;;29.31;44.24;100561.06;146611;679;46010;-72
2022/05/24 08:40:22;;;;;;;;;10.00;10.00;;;;;29.24;43.67;100560.38;146606;673;46918;-74
2022/05/24 08:50:56;;;;;;;;;7.50;7.50;;;;;29.43;42.99;100558.91;146607;651;46023;-72
2022/05/24 08:53:51;;;;;;;;;8.50;8.25;;;;;29.56;41.84;100559.41;146606;584;46012;-72
2022/05/24 08:57:17;;;;;;;;;8.00;8.00;;;;;28.98;39.18;100447.16;146609;574;46010;-72
2022/05/24 09:00:14;;;;;;;;;8.25;8.25;;;;;29.77;39.33;100570.41;146605;622;47012;-73
2022/05/24 09:03:09;;;;;;;;;9.50;9.00;;;;;29.64;40.03;100569.91;146610;627;45020;-73
2022/05/24 09:06:11;;;;;;;;;7.50;7.50;;;;;29.52;38.27;100559.56;146608;578;47012;-72
2022/05/24 09:09:37;;;;;;;;;10.25;9.25;;;;;29.40;42.03;100566.13;146605;648;46020;-73
2022/05/24 09:13:04;;;;;;;;;9.00;9.00;;;;;29.31;41.31;100569.94;146607;640;45916;-73
2022/05/24 09:16:22;;;;;;;;;7.25;7.25;;;;;28.54;43.29;100427.09;146610;640;45022;-74
2022/05/24 09:19:26;;;;;;;;;9.00;8.50;;;;;29.41;43.85;100568.78;146607;580;46016;-73
2022/05/24 09:22:21;;;;;;;;;9.00;9.00;;;;;29.49;40.52;100573.00;146608;639;46012;-73
2022/05/24 09:25:13;;;;;;;;;7.50;7.25;;;;;29.47;41.21;100578.38;146604;654;46016;-73
2022/05/24 09:28:05;;;;;;;;;6.25;6.25;;;;;29.32;39.87;100570.84;146608;609;45021;-72
2022/05/24 09:31:02;;;;;;;;;9.75;8.00;;;;;29.20;41.02;100577.41;146605;661;46025;-72
2022/05/24 09:34:01;;;;;;;;;10.75;10.50;;;;;28.96;41.82;100582.44;146610;719;45020;-73
2022/05/24 09:37:03;;;;;;;;;8.25;7.00;;;;;28.89;42.54;100572.00;146608;599;46917;-73
2022/05/24 09:40:26;;;;;;;;;9.00;8.50;;;;;28.99;41.26;100589.50;146608;720;46020;-72
2022/05/24 09:43:33;;;;;;;;;9.75;9.75;;;;;29.04;43.35;100563.59;146608;606;46014;-72
2022/05/24 09:46:29;;;;;;;;;11.00;10.75;;;;;29.10;42.30;100565.22;146606;591;46020;-73
2022/05/24 09:49:35;;;;;;;;;10.00;9.25;;;;;29.20;43.49;100570.25;146605;668;46014;-72
2022/05/24 09:52:28;;;;;;;;;11.00;10.25;;;;;28.62;43.46;100449.06;146609;626;46010;-72
2022/05/24 09:55:27;;;;;;;;;10.75;9.75;;;;;29.39;41.34;100567.06;146604;610;46016;-72
2022/05/24 09:58:38;;;;;;;;;11.50;10.75;;;;;29.46;43.10;100566.81;146607;605;46020;-72
2022/05/24 10:01:43;;;;;;;;;8.75;8.00;;;;;29.51;42.69;100564.03;146603;582;46016;-72
2022/05/24 10:04:42;;;;;;;;;12.00;9.50;;;;;29.55;41.60;100562.16;146604;704;46021;-72
2022/05/24 10:07:39;;;;;;;;;10.75;10.75;;;;;29.51;43.19;100557.81;146604;573;47012;-72
2022/05/24 10:10:57;;;;;;;;;10.25;10.25;;;;;29.52;44.04;100567.59;146607;566;46021;-72
2022/05/24 10:14:10;;;;;;;;;12.50;12.00;;;;;29.57;43.97;100563.84;146606;675;46012;-72
2022/05/24 10:17:43;;;;;;;;;10.75;10.75;;;;;29.66;44.77;100555.59;146608;647;46010;-72
2022/05/24 10:21:23;;;;;;;;;9.67;9.33;;;;;28.23;43.54;100291.03;146607;576;46014;-72
2022/05/24 10:24:49;;;;;;;;;10.25;9.75;;;;;29.83;41.81;100560.41;146609;564;45914;-73
2022/05/24 10:27:59;;;;;;;;;10.50;10.50;;;;;29.88;43.79;100553.13;146629;689;45012;-73
2022/05/24 10:31:36;;;;;;;;;11.25;9.75;;;;;28.23;41.29;100281.25;146630;593;45012;-72
2022/05/24 10:39:13;;;;;;;;;8.75;8.75;;;;;29.65;42.24;100545.81;146627;652;45020;-73
2022/05/24 10:42:48;;;;;;;;;9.00;8.75;;;;;29.64;43.55;100548.53;146629;566;45010;-72
2022/05/24 10:45:49;;;;;;;;;9.00;8.00;;;;;29.61;42.28;100536.16;146629;580;45020;-72
2022/05/24 10:49:08;;;;;;;;;7.25;6.50;;;;;28.89;42.36;100406.53;146629;564;46012;-73
2022/05/24 10:52:15;;;;;;;;;10.00;8.50;;;;;29.74;42.80;100539.31;146631;662;45010;-73
2022/05/24 10:55:38;;;;;;;;;10.00;9.75;;;;;28.55;41.01;100327.47;146628;579;45017;-74
2022/05/24 10:58:36;;;;;;;;;9.00;9.00;;;;;29.83;42.16;100541.69;146629;599;45023;-72
2022/05/24 11:01:45;;;;;;;;;8.25;8.25;;;;;29.68;42.81;100488.72;146627;641;46918;-73
2022/05/24 11:04:56;;;;;;;;;11.50;10.25;;;;;30.12;43.09;100531.87;146631;575;45020;-72
2022/05/24 11:07:52;;;;;;;;;8.00;7.50;;;;;30.26;41.59;100524.31;146628;593;45016;-71
2022/05/24 11:10:48;;;;;;;;;8.00;7.50;;;;;30.30;41.18;100536.66;146630;630;45010;-74
2022/05/24 11:13:51;;;;;;;;;11.25;8.50;;;;;30.27;41.77;100525.19;146628;708;45016;-74
2022/05/24 11:16:53;;;;;;;;;9.75;9.25;;;;;30.24;42.23;100528.81;146628;564;46010;-73
2022/05/24 11:19:56;;;;;;;;;9.00;9.00;;;;;30.32;42.59;100526.78;146627;669;45014;-74
2022/05/24 11:23:03;;;;;;;;;8.00;8.00;;;;;30.43;41.72;100520.19;146630;696;45010;-71
2022/05/24 11:26:02;;;;;;;;;10.50;9.00;;;;;30.45;42.46;100518.34;146615;711;46014;-73
2022/05/24 11:29:42;;;;;;;;;7.75;5.50;;;;;30.47;41.90;100514.69;146607;570;46010;-70
2022/05/24 11:32:58;;;;;;;;;8.00;7.50;;;;;30.33;40.88;100503.56;146605;598;46916;-69
2022/05/24 11:35:54;;;;;;;;;9.00;8.00;;;;;30.28;39.79;100514.44;146609;579;46010;-71
2022/05/24 11:38:48;;;;;;;;;9.50;8.75;;;;;29.52;41.36;100391.25;146607;576;46012;-69
2022/05/24 11:41:41;;;;;;;;;6.75;6.75;;;;;30.14;41.11;100509.50;146606;574;46021;-70
2022/05/24 11:44:38;;;;;;;;;9.00;9.00;;;;;30.11;41.20;100501.59;146605;573;46012;-70
2022/05/24 11:48:04;;;;;;;;;7.33;7.00;;;;;30.09;42.01;100499.88;146609;654;46010;-70
2022/05/24 11:50:56;;;;;;;;;8.67;8.33;;;;;30.17;41.63;100497.84;146607;569;46016;-71
2022/05/24 11:53:48;;;;;;;;;9.00;8.33;;;;;30.34;41.78;100490.16;146609;603;45020;-71
2022/05/24 11:56:41;;;;;;;;;11.25;8.75;;;;;30.39;40.64;100492.66;146606;570;46016;-71
2022/05/24 12:00:05;;;;;;;;;8.25;7.75;;;;;30.01;41.78;100432.44;146607;623;46020;-71
2022/05/24 12:09:26;;;;;;;;;8.00;7.75;;;;;30.52;41.76;100482.41;146607;597;45916;-73
2022/05/24 12:12:33;;;;;;;;;12.00;9.50;;;;;29.74;41.72;100354.06;146606;617;46010;-72
2022/05/24 12:15:53;;;;;;;;;6.75;6.00;;;;;29.62;42.46;100331.28;146606;577;46014;-72
2022/05/24 12:19:00;;;;;;;;;8.25;7.75;;;;;30.49;42.15;100477.16;146608;616;46010;-73
2022/05/24 12:22:15;;;;;;;;;6.00;3.75;;;;;30.47;42.46;100476.34;146606;620;46917;-73
2022/05/24 12:25:09;;;;;;;;;9.00;9.00;;;;;30.46;41.03;100478.16;146608;596;46021;-72
2022/05/24 12:28:01;;;;;;;;;9.25;9.25;;;;;30.49;41.15;100477.16;146607;577;45917;-71
2022/05/24 12:30:58;;;;;;;;;9.00;8.00;;;;;30.53;40.49;100468.09;146608;627;45020;-72
2022/05/24 12:34:14;;;;;;;;;7.50;7.25;;;;;30.51;41.23;100465.50;146605;684;46918;-73
2022/05/24 12:37:20;;;;;;;;;8.00;8.00;;;;;30.44;40.85;100466.66;146610;573;46012;-73
2022/05/24 12:40:36;;;;;;;;;7.75;6.75;;;;;29.90;41.58;100374.84;146607;610;46012;-72
2022/05/24 12:43:28;;;;;;;;;8.50;7.50;;;;;30.30;40.11;100464.44;146608;574;46010;-74
2022/05/24 12:46:20;;;;;;;;;8.00;7.75;;;;;30.26;40.78;100459.25;146605;565;47014;-73
2022/05/24 12:49:25;;;;;;;;;6.25;6.25;;;;;30.23;40.71;100467.37;146609;602;45020;-72
2022/05/24 12:52:22;;;;;;;;;7.75;7.25;;;;;30.20;40.75;100456.78;146604;600;46016;-71
2022/05/24 12:58:41;;;;;;;;;8.50;6.75;;;;;30.20;41.46;100463.00;146607;591;46012;-72
2022/05/24 13:01:35;;;;;;;;;11.25;9.25;;;;;30.22;40.29;100452.25;146609;676;45021;-72
2022/05/24 13:04:29;;;;;;;;;9.00;9.00;;;;;30.28;41.84;100452.03;146608;622;46012;-72
2022/05/24 13:07:58;;;;;;;;;12.00;9.25;;;;;28.97;41.94;100229.22;146605;672;46020;-73
2022/05/24 13:10:50;;;;;;;;;10.25;9.50;;;;;30.32;41.37;100459.91;146606;609;46016;-73
2022/05/24 13:13:44;;;;;;;;;10.75;10.75;;;;;30.31;41.11;100458.19;146605;602;46020;-72
2022/05/24 13:16:38;;;;;;;;;9.75;8.75;;;;;30.27;41.58;100461.00;146604;616;46017;-71
2022/05/24 13:19:30;;;;;;;;;11.00;11.00;;;;;30.26;41.84;100451.22;146609;586;46010;-71
2022/05/24 13:22:24;;;;;;;;;10.50;9.75;;;;;30.36;41.36;100458.00;146605;662;47012;-71
2022/05/24 13:25:28;;;;;;;;;8.75;7.50;;;;;30.38;41.64;100443.66;146606;631;46020;-71
2022/05/24 13:28:55;;;;;;;;;10.00;10.00;;;;;29.97;41.26;100391.59;146603;667;47020;-70
2022/05/24 13:35:02;;;;;;;;;9.50;9.50;;;;;30.14;42.07;100445.34;146604;639;46016;-71
2022/05/24 13:37:57;;;;;;;;;7.75;6.75;;;;;30.07;41.83;100441.13;146609;587;45021;-70
2022/05/24 13:40:58;;;;;;;;;8.50;8.50;;;;;29.98;42.29;100438.75;146604;579;46016;-70
2022/05/24 13:43:50;;;;;;;;;10.00;7.50;;;;;29.92;42.28;100445.19;146605;710;47010;-73
2022/05/24 13:47:12;;;;;;;;;10.00;9.00;;;;;29.89;42.41;100439.94;146607;729;46012;-71
2022/05/24 13:50:53;;;;;;;;;8.00;8.00;;;;;29.02;43.11;100303.84;146608;688;46020;-71
2022/05/24 13:53:46;;;;;;;;;11.25;10.00;;;;;29.75;43.96;100444.88;146610;564;45019;-72
2022/05/24 13:56:49;;;;;;;;;9.00;7.75;;;;;29.60;44.05;100432.84;146609;579;45020;-73
2022/05/24 13:59:42;;;;;;;;;9.00;9.00;;;;;29.58;43.61;100441.81;146604;680;46016;-72
2022/05/24 14:02:35;;;;;;;;;10.00;10.00;;;;;29.51;44.66;100435.81;146607;565;46021;-71
2022/05/24 14:05:37;;;;;;;;;12.00;8.75;;;;;29.32;46.10;100443.53;146603;723;46016;-71
2022/05/24 14:08:29;;;;;;;;;11.00;9.75;;;;;29.13;46.55;100439.63;146611;673;45021;-72
2022/05/24 14:11:28;;;;;;;;;9.00;8.50;;;;;29.06;45.59;100441.63;146605;620;47014;-72
2022/05/24 14:14:21;;;;;;;;;11.00;11.00;;;;;29.04;45.53;100445.28;146609;669;46010;-70
2022/05/24 14:17:14;;;;;;;;;11.00;11.00;;;;;29.02;45.63;100441.78;146604;586;46034;-72
2022/05/24 14:20:06;;;;;;;;;10.00;9.00;;;;;28.78;46.03;100445.06;146602;566;46020;-74
2022/05/24 14:22:59;;;;;;;;;9.00;8.50;;;;;28.62;46.24;100441.06;146608;659;46013;-73
2022/05/24 14:25:51;;;;;;;;;9.00;9.00;;;;;28.53;46.04;100443.97;146609;584;46010;-73
2022/05/24 14:28:44;;;;;;;;;10.25;9.00;;;;;28.42;45.84;100441.63;146606;672;46016;-72
2022/05/24 14:31:37;;;;;;;;;12.50;11.25;;;;;28.41;46.44;100445.22;146609;725;46021;-73